createdAt,value
2022-09-03T00:01:27.499Z,16.90
2022-09-03T00:04:12.342Z,16.80
2022-09-03T00:06:46.394Z,16.90
2022-09-03T00:09:26.184Z,16.50
2022-09-03T00:12:08.477Z,16.80
2022-09-03T00:14:40.954Z,17.00
2022-09-03T00:17:16.450Z,16.50
2022-09-03T00:20:07.330Z,16.30
2022-09-03T00:22:39.441Z,16.10
2022-09-03T00:25:12.978Z,16.00
2022-09-03T00:27:41.850Z,15.90
2022-09-03T00:30:17.275Z,16.20
2022-09-03T00:32:53.279Z,16.40
2022-09-03T00:35:44.680Z,16.50
2022-09-03T00:38:11.495Z,16.30
2022-09-03T00:40:56.206Z,16.50
2022-09-03T00:43:33.046Z,16.80
2022-09-03T00:46:07.122Z,16.90
2022-09-03T00:48:50.597Z,17.20
2022-09-03T00:51:44.756Z,17.10
2022-09-03T00:54:25.492Z,17.00
2022-09-03T00:57:05.350Z,17.10
2022-09-03T00:59:52.995Z,17.30
2022-09-03T01:02:36.345Z,17.10
2022-09-03T01:05:20.984Z,17.30
2022-09-03T01:08:10.102Z,17.50
2022-09-03T01:11:10.454Z,17.40
2022-09-03T01:13:43.888Z,17.10
2022-09-03T01:16:30.071Z,17.20
2022-09-03T01:19:17.505Z,17.10
2022-09-03T01:22:11.974Z,17.10
2022-09-03T01:25:17.813Z,17.10
2022-09-03T01:28:13.362Z,16.40
2022-09-03T01:30:49.241Z,16.60
2022-09-03T01:33:46.141Z,16.90
2022-09-03T01:36:40.988Z,16.90
2022-09-03T01:39:19.867Z,17.00
2022-09-03T01:42:23.636Z,17.00
2022-09-03T01:45:12.836Z,17.10
2022-09-03T01:48:06.261Z,16.60
2022-09-03T01:50:38.832Z,16.60
2022-09-03T01:53:24.143Z,16.10
2022-09-03T01:56:28.587Z,15.90
2022-09-03T01:59:04.856Z,16.10
2022-09-03T02:01:43.907Z,16.40
2022-09-03T02:04:20.538Z,15.90
2022-09-03T02:06:48.829Z,16.10
2022-09-03T02:09:17.186Z,16.30
2022-09-03T02:11:48.809Z,15.80
2022-09-03T02:14:15.762Z,15.80
2022-09-03T02:16:44.707Z,16.20
2022-09-03T02:19:17.022Z,15.90
2022-09-03T02:21:56.086Z,15.70
2022-09-03T02:24:25.166Z,16.00
2022-09-03T02:26:53.382Z,15.40
2022-09-03T02:29:21.391Z,15.10
2022-09-03T02:31:48.459Z,15.20
2022-09-03T02:34:15.642Z,15.10
2022-09-03T02:36:47.347Z,15.40
2022-09-03T02:39:15.687Z,14.90
2022-09-03T02:41:42.681Z,15.10
2022-09-03T02:44:17.140Z,15.00
2022-09-03T02:46:49.858Z,15.10
2022-09-03T02:49:16.783Z,15.00
2022-09-03T02:51:45.053Z,14.90
2022-09-03T02:54:15.778Z,14.80
2022-09-03T02:56:48.251Z,14.70
2022-09-03T02:59:17.852Z,14.70
2022-09-03T03:01:46.672Z,14.50
2022-09-03T03:04:14.427Z,14.40
2022-09-03T03:06:41.193Z,14.70
2022-09-03T03:09:08.514Z,14.70
2022-09-03T03:11:35.749Z,14.80
2022-09-03T03:14:02.781Z,14.80
2022-09-03T03:16:29.625Z,14.90
2022-09-03T03:18:57.224Z,14.90
2022-09-03T03:21:24.260Z,14.60
2022-09-03T03:23:51.062Z,14.40
2022-09-03T03:26:20.414Z,14.50
2022-09-03T03:28:48.739Z,14.20
2022-09-03T03:31:18.025Z,14.30
2022-09-03T03:33:45.319Z,14.40
2022-09-03T03:36:16.098Z,14.30
2022-09-03T03:38:44.195Z,13.90
2022-09-03T03:41:16.995Z,14.40
2022-09-03T03:43:44.821Z,14.10
2022-09-03T03:46:12.946Z,14.50
2022-09-03T03:48:39.760Z,14.80
2022-09-03T03:51:08.521Z,14.90
2022-09-03T03:53:37.304Z,15.00
2022-09-03T03:56:09.957Z,14.90
2022-09-03T03:58:37.329Z,14.90
2022-09-03T04:01:05.981Z,14.40
2022-09-03T04:03:33.103Z,14.30
2022-09-03T04:06:00.743Z,14.30
2022-09-03T04:08:28.685Z,14.30
2022-09-03T04:11:00.548Z,14.40
2022-09-03T04:13:41.644Z,14.40
2022-09-03T04:16:13.846Z,14.40
2022-09-03T04:18:41.847Z,14.30
2022-09-03T04:21:11.926Z,14.50
2022-09-03T04:23:41.364Z,14.50
2022-09-03T04:26:09.803Z,14.50
2022-09-03T04:28:37.299Z,14.80
2022-09-03T04:31:06.167Z,14.70
2022-09-03T04:33:35.643Z,14.60
2022-09-03T04:36:09.048Z,14.20
2022-09-03T04:38:38.259Z,14.50
2022-09-03T04:41:07.306Z,15.00
2022-09-03T04:43:34.706Z,15.40
2022-09-03T04:46:05.455Z,15.50
2022-09-03T04:48:33.650Z,15.60
2022-09-03T04:51:13.315Z,15.70
2022-09-03T04:53:42.292Z,15.30
2022-09-03T04:56:21.334Z,15.50
2022-09-03T04:58:53.669Z,15.70
2022-09-03T05:01:23.103Z,15.50
2022-09-03T05:03:52.245Z,15.40
2022-09-03T05:06:19.821Z,15.60
2022-09-03T05:08:50.725Z,15.50
2022-09-03T05:11:18.645Z,15.10
2022-09-03T05:13:49.617Z,15.30
2022-09-03T05:16:17.931Z,15.60
2022-09-03T05:18:46.786Z,15.60
2022-09-03T05:21:15.683Z,15.80
2022-09-03T05:23:44.896Z,16.00
2022-09-03T05:26:17.317Z,15.90
2022-09-03T05:28:44.974Z,16.00
2022-09-03T05:31:17.618Z,16.10
2022-09-03T05:33:46.378Z,15.90
2022-09-03T05:36:16.342Z,16.00
2022-09-03T05:38:43.813Z,16.10
2022-09-03T05:41:12.650Z,16.10
2022-09-03T05:43:40.881Z,15.90
2022-09-03T05:46:12.174Z,15.70
2022-09-03T05:48:40.462Z,15.80
2022-09-03T05:51:09.882Z,15.80
2022-09-03T05:53:39.210Z,16.00
2022-09-03T05:56:10.761Z,16.30
2022-09-03T05:58:40.765Z,15.90
2022-09-03T06:01:21.493Z,16.00
2022-09-03T06:03:55.550Z,16.30
2022-09-03T06:06:26.208Z,15.70
2022-09-03T06:08:58.218Z,15.50
2022-09-03T06:11:28.111Z,15.70
2022-09-03T06:14:01.248Z,15.90
2022-09-03T06:16:31.737Z,15.70
2022-09-03T06:19:00.644Z,16.00
2022-09-03T06:21:27.662Z,16.10
2022-09-03T06:23:56.989Z,15.90
2022-09-03T06:26:28.741Z,16.30
2022-09-03T06:28:57.152Z,16.20
2022-09-03T06:31:25.235Z,16.40
2022-09-03T06:33:53.596Z,16.50
2022-09-03T06:36:22.592Z,16.50
2022-09-03T06:38:55.436Z,16.70
2022-09-03T06:41:25.713Z,16.90
2022-09-03T06:44:03.008Z,17.00
2022-09-03T06:46:31.940Z,16.50
2022-09-03T06:48:58.763Z,16.80
2022-09-03T06:51:27.660Z,16.70
2022-09-03T06:53:59.636Z,16.70
2022-09-03T06:56:27.046Z,16.60
2022-09-03T06:58:59.033Z,16.80
2022-09-03T07:01:31.134Z,16.90
2022-09-03T07:04:03.534Z,16.70
2022-09-03T07:06:33.025Z,16.80
2022-09-03T07:09:00.195Z,17.10
2022-09-03T07:11:29.172Z,17.00
2022-09-03T07:13:57.828Z,17.00
2022-09-03T07:16:29.928Z,17.10
2022-09-03T07:18:57.142Z,17.40
2022-09-03T07:21:26.840Z,17.30
2022-09-03T07:23:55.164Z,17.30
2022-09-03T07:26:30.462Z,17.60
2022-09-03T07:28:57.857Z,18.10
2022-09-03T07:31:31.047Z,17.90
2022-09-03T07:34:06.157Z,17.90
2022-09-03T07:36:48.922Z,17.70
2022-09-03T07:39:17.947Z,17.30
2022-09-03T07:41:46.082Z,17.40
2022-09-03T07:44:15.375Z,17.20
2022-09-03T07:46:45.322Z,17.70
2022-09-03T07:49:12.585Z,17.80
2022-09-03T07:51:39.684Z,18.00
2022-09-03T07:54:10.814Z,18.10
2022-09-03T07:56:39.691Z,18.10
2022-09-03T07:59:06.732Z,18.40
2022-09-03T08:01:34.732Z,18.60
2022-09-03T08:04:04.218Z,18.50
2022-09-03T08:06:33.460Z,18.20
2022-09-03T08:09:05.717Z,18.40
2022-09-03T08:11:36.590Z,18.60
2022-09-03T08:14:06.541Z,18.40
2022-09-03T08:16:42.760Z,18.50
2022-09-03T08:19:11.291Z,18.30
2022-09-03T08:21:38.197Z,18.40
2022-09-03T08:24:05.675Z,18.80
2022-09-03T08:26:37.796Z,19.20
2022-09-03T08:29:07.277Z,19.40
2022-09-03T08:31:36.536Z,19.40
2022-09-03T08:34:07.705Z,19.40
2022-09-03T08:36:37.341Z,19.30
2022-09-03T08:39:09.978Z,19.50
2022-09-03T08:42:08.255Z,19.70
2022-09-03T08:44:46.950Z,19.90
2022-09-03T08:47:33.106Z,20.20
2022-09-03T08:50:09.145Z,20.40
2022-09-03T08:52:50.879Z,20.50
2022-09-03T08:55:43.232Z,20.30
2022-09-03T08:58:14.232Z,20.20
2022-09-03T09:01:02.744Z,20.50
2022-09-03T09:03:43.951Z,20.40
2022-09-03T09:06:23.685Z,20.80
2022-09-03T09:09:05.498Z,21.10
2022-09-03T09:11:57.143Z,21.50
2022-09-03T09:14:49.254Z,21.10
2022-09-03T09:17:34.724Z,21.20
2022-09-03T09:20:13.531Z,21.60
2022-09-03T09:22:48.405Z,21.80
2022-09-03T09:25:22.480Z,21.50
2022-09-03T09:27:59.637Z,21.40
2022-09-03T09:30:27.989Z,21.60
2022-09-03T09:32:56.179Z,21.30
2022-09-03T09:35:23.782Z,21.70
2022-09-03T09:37:52.829Z,21.40
2022-09-03T09:40:33.762Z,21.60
2022-09-03T09:43:23.590Z,21.40
2022-09-03T09:45:52.656Z,22.00
2022-09-03T09:48:31.215Z,21.40
2022-09-03T09:51:06.261Z,21.60
2022-09-03T09:53:33.262Z,22.10
2022-09-03T09:56:00.450Z,21.90
2022-09-03T09:58:30.866Z,21.60
2022-09-03T10:01:14.937Z,21.60
2022-09-03T10:03:55.162Z,21.80
2022-09-03T10:06:46.497Z,22.30
2022-09-03T10:09:18.985Z,22.80
2022-09-03T10:11:55.286Z,22.50
2022-09-03T10:14:32.588Z,22.50
2022-09-03T10:17:16.500Z,23.00
2022-09-03T10:20:30.113Z,23.10
2022-09-03T10:23:21.886Z,23.40
2022-09-03T10:26:07.680Z,23.60
2022-09-03T10:28:42.806Z,22.80
2022-09-03T10:31:29.039Z,22.30
2022-09-03T10:34:18.610Z,22.50
2022-09-03T10:37:00.450Z,22.40
2022-09-03T10:39:52.058Z,23.10
2022-09-03T10:42:31.259Z,23.50
2022-09-03T10:45:17.866Z,23.90
2022-09-03T10:48:20.842Z,23.90
2022-09-03T10:50:50.731Z,24.10
2022-09-03T10:53:29.959Z,24.50
2022-09-03T10:56:22.433Z,24.10
2022-09-03T10:58:59.181Z,24.60
2022-09-03T11:01:44.173Z,23.80
2022-09-03T11:04:22.451Z,24.00
2022-09-03T11:07:01.392Z,24.20
2022-09-03T11:09:41.475Z,24.30
2022-09-03T11:12:25.342Z,24.40
2022-09-03T11:15:16.010Z,24.30
2022-09-03T11:17:49.227Z,24.40
2022-09-03T11:20:24.466Z,25.20
2022-09-03T11:22:55.660Z,25.50
2022-09-03T11:25:36.736Z,25.50
2022-09-03T11:28:28.429Z,25.70
2022-09-03T11:31:13.475Z,25.30
2022-09-03T11:33:50.569Z,25.60
2022-09-03T11:36:30.866Z,25.30
2022-09-03T11:38:57.783Z,25.60
2022-09-03T11:41:27.434Z,25.50
2022-09-03T11:43:54.866Z,25.30
2022-09-03T11:46:21.981Z,24.80
2022-09-03T11:48:55.415Z,25.20
2022-09-03T11:51:24.958Z,25.60
2022-09-03T11:53:56.369Z,25.70
2022-09-03T11:56:23.501Z,25.40
2022-09-03T11:59:16.975Z,25.60
2022-09-03T12:01:53.122Z,26.30
2022-09-03T12:04:31.397Z,26.40
2022-09-03T12:07:31.583Z,26.40
2022-09-03T12:10:08.125Z,26.50
2022-09-03T12:12:48.267Z,26.50
2022-09-03T12:15:44.817Z,25.60
2022-09-03T12:18:23.756Z,25.90
2022-09-03T12:20:53.753Z,26.20
2022-09-03T12:23:35.430Z,26.50
2022-09-03T12:26:07.045Z,25.60
2022-09-03T12:28:38.368Z,26.00
2022-09-03T12:31:23.584Z,26.10
2022-09-03T12:33:59.047Z,26.50
2022-09-03T12:36:36.739Z,26.30
2022-09-03T12:42:19.070Z,26.00
2022-09-03T12:44:45.866Z,25.50
2022-09-03T12:50:11.391Z,26.50
2022-09-03T12:53:04.710Z,27.00
2022-09-03T12:55:44.309Z,26.80
2022-09-03T12:58:24.606Z,26.40
2022-09-03T13:01:11.254Z,25.30
2022-09-03T13:03:45.937Z,26.30
2022-09-03T13:06:15.542Z,26.90
2022-09-03T13:08:50.499Z,26.40
2022-09-03T13:11:21.026Z,27.00
2022-09-03T13:14:00.320Z,26.50
2022-09-03T13:16:45.296Z,26.20
2022-09-03T13:19:12.132Z,26.00
2022-09-03T13:22:16.507Z,25.80
2022-09-03T13:25:08.484Z,26.60
2022-09-03T13:27:56.922Z,26.50
2022-09-03T13:30:33.142Z,26.10
2022-09-03T13:33:07.185Z,26.70
2022-09-03T13:35:40.305Z,25.90
2022-09-03T13:38:10.133Z,26.60
2022-09-03T13:41:02.715Z,27.00
2022-09-03T13:43:42.439Z,26.90
2022-09-03T13:46:13.506Z,26.10
2022-09-03T13:49:18.469Z,26.10
2022-09-03T13:51:59.286Z,26.20
2022-09-03T13:57:27.702Z,27.00
2022-09-03T14:00:30.254Z,26.80
2022-09-03T14:03:30.790Z,26.10
2022-09-03T14:06:15.318Z,26.60
2022-09-03T14:09:01.374Z,26.30
2022-09-03T14:11:50.679Z,26.00
2022-09-03T14:14:37.903Z,26.30
2022-09-03T14:17:23.561Z,26.60
2022-09-03T14:20:02.266Z,26.80
2022-09-03T14:22:34.737Z,27.10
2022-09-03T14:25:25.793Z,27.30
2022-09-03T14:27:54.438Z,26.60
2022-09-03T14:30:40.535Z,26.90
2022-09-03T14:33:25.331Z,27.20
2022-09-03T14:36:24.246Z,26.00
2022-09-03T14:39:08.485Z,26.00
2022-09-03T14:41:56.337Z,26.50
2022-09-03T14:44:39.132Z,26.70
2022-09-03T14:47:11.772Z,26.10
2022-09-03T14:49:38.527Z,26.30
2022-09-03T14:52:20.636Z,26.90
2022-09-03T14:55:00.227Z,27.10
2022-09-03T14:57:29.895Z,27.00
2022-09-03T15:00:18.470Z,26.40
2022-09-03T15:03:10.465Z,26.40
2022-09-03T15:05:54.974Z,26.40
2022-09-03T15:08:45.925Z,26.40
2022-09-03T15:11:26.574Z,26.00
2022-09-03T15:14:12.992Z,25.90
2022-09-03T15:16:58.262Z,25.70
2022-09-03T15:19:47.764Z,25.20
2022-09-03T15:22:49.962Z,25.30
2022-09-03T15:25:47.046Z,25.60
2022-09-03T15:28:43.926Z,25.50
2022-09-03T15:31:24.525Z,25.20
2022-09-03T15:34:16.563Z,25.30
2022-09-03T15:36:49.184Z,25.40
2022-09-03T15:39:24.255Z,25.00
2022-09-03T15:41:54.885Z,25.00
2022-09-03T15:44:21.751Z,25.00
2022-09-03T15:47:05.179Z,24.90
2022-09-03T15:49:55.502Z,24.60
2022-09-03T15:52:28.568Z,24.70
2022-09-03T15:55:03.758Z,24.60
2022-09-03T15:57:40.316Z,24.70
2022-09-03T16:00:11.711Z,24.70
2022-09-03T16:03:07.572Z,24.70
2022-09-03T16:06:05.064Z,24.70
2022-09-03T16:08:55.355Z,24.40
2022-09-03T16:11:50.143Z,24.50
2022-09-03T16:14:37.306Z,24.50
2022-09-03T16:17:25.188Z,24.60
2022-09-03T16:20:30.901Z,24.50
2022-09-03T16:23:13.282Z,24.40
2022-09-03T16:26:03.880Z,24.40
2022-09-03T16:28:47.901Z,24.40
2022-09-03T16:31:56.231Z,24.30
2022-09-03T16:34:56.101Z,24.20
2022-09-03T16:37:27.301Z,24.20
2022-09-03T16:40:13.257Z,24.20
2022-09-03T16:43:18.114Z,24.10
2022-09-03T16:46:23.395Z,24.10
2022-09-03T16:49:06.077Z,24.10
2022-09-03T16:51:44.247Z,24.00
2022-09-03T16:54:16.848Z,23.90
2022-09-03T16:56:50.202Z,23.90
2022-09-03T16:59:31.958Z,23.80
2022-09-03T17:02:40.415Z,23.80
2022-09-03T17:05:32.429Z,23.70
2022-09-03T17:08:11.624Z,23.70
2022-09-03T17:10:59.804Z,23.60
2022-09-03T17:13:32.654Z,23.50
2022-09-03T17:16:15.866Z,23.50
2022-09-03T17:19:06.412Z,23.40
2022-09-03T17:22:19.300Z,23.40
2022-09-03T17:25:08.415Z,23.30
2022-09-03T17:27:47.488Z,23.30
2022-09-03T17:30:26.831Z,23.30
2022-09-03T17:33:26.314Z,23.30
2022-09-03T17:36:18.670Z,23.30
2022-09-03T17:39:09.336Z,23.20
2022-09-03T17:42:06.342Z,23.20
2022-09-03T17:44:50.103Z,23.10
2022-09-03T17:47:28.934Z,23.10
2022-09-03T17:50:05.481Z,23.00
2022-09-03T17:52:48.523Z,23.00
2022-09-03T17:55:36.350Z,23.00
2022-09-03T17:58:44.973Z,23.00
2022-09-03T18:01:13.033Z,23.00
2022-09-03T18:04:16.261Z,22.90
2022-09-03T18:07:29.247Z,23.30
2022-09-03T18:10:46.598Z,24.00
2022-09-03T18:13:54.484Z,24.40
2022-09-03T18:16:28.398Z,24.20
2022-09-03T18:19:04.897Z,23.50
2022-09-03T18:21:56.491Z,23.70
2022-09-03T18:25:13.445Z,23.50
2022-09-03T18:28:05.541Z,23.80
2022-09-03T18:30:52.798Z,23.60
2022-09-03T18:33:43.773Z,23.50
2022-09-03T18:36:30.831Z,23.40
2022-09-03T18:39:29.808Z,23.80
2022-09-03T18:42:50.148Z,23.60
2022-09-03T18:47:00.331Z,23.60
2022-09-03T18:49:50.501Z,23.80
2022-09-03T18:52:56.689Z,23.60
2022-09-03T18:56:05.391Z,23.50
2022-09-03T18:58:53.866Z,22.80
2022-09-03T19:01:52.469Z,22.80
2022-09-03T19:05:15.712Z,23.10
2022-09-03T19:08:29.336Z,22.60
2022-09-03T19:11:25.398Z,22.40
2022-09-03T19:14:11.300Z,22.30
2022-09-03T19:17:25.047Z,22.30
2022-09-03T19:20:36.550Z,22.20
2022-09-03T19:23:22.565Z,22.10
2022-09-03T19:26:10.646Z,22.00
2022-09-03T19:29:03.875Z,22.00
2022-09-03T19:32:08.153Z,21.90
2022-09-03T19:35:17.404Z,21.90
2022-09-03T19:38:13.675Z,21.80
2022-09-03T19:41:19.422Z,21.80
2022-09-03T19:44:40.346Z,21.80
2022-09-03T19:47:27.361Z,21.70
2022-09-03T19:50:24.927Z,21.70
2022-09-03T19:53:20.436Z,21.60
2022-09-03T19:56:13.526Z,21.60
2022-09-03T19:59:15.480Z,21.60
2022-09-03T20:02:01.880Z,21.60
2022-09-03T20:04:53.875Z,21.60
2022-09-03T20:07:40.247Z,21.60
2022-09-03T20:10:23.538Z,21.50
2022-09-03T20:13:13.386Z,21.40
2022-09-03T20:16:04.305Z,21.40
2022-09-03T20:18:49.746Z,21.40
2022-09-03T20:21:33.287Z,21.40
2022-09-03T20:24:12.508Z,21.40
2022-09-03T20:26:55.129Z,21.40
2022-09-03T20:29:32.336Z,21.30
2022-09-03T20:32:39.150Z,21.30
2022-09-03T20:35:40.128Z,21.30
2022-09-03T20:38:28.692Z,21.30
2022-09-03T20:41:07.937Z,21.30
2022-09-03T20:44:05.466Z,21.20
2022-09-03T20:46:56.449Z,21.20
2022-09-03T20:49:44.566Z,21.20
2022-09-03T20:52:28.201Z,21.20
2022-09-03T20:55:19.881Z,21.20
2022-09-03T20:58:03.439Z,21.20
2022-09-03T21:01:00.999Z,21.40
2022-09-03T21:04:04.208Z,21.30
2022-09-03T21:06:35.910Z,21.10
2022-09-03T21:09:30.518Z,21.10
2022-09-03T21:12:16.404Z,21.00
2022-09-03T21:15:00.931Z,21.00
2022-09-03T21:17:40.253Z,20.90
2022-09-03T21:20:41.258Z,20.90
2022-09-03T21:23:25.586Z,20.90
2022-09-03T21:26:32.670Z,20.80
2022-09-03T21:29:28.938Z,20.80
2022-09-03T21:32:05.816Z,20.80
2022-09-03T21:34:50.495Z,20.80
2022-09-03T21:37:20.178Z,20.70
2022-09-03T21:39:56.957Z,20.80
2022-09-03T21:42:48.995Z,20.70
2022-09-03T21:45:33.334Z,20.60
2022-09-03T21:48:26.143Z,20.60
2022-09-03T21:51:00.282Z,20.70
2022-09-03T21:53:39.247Z,20.70
2022-09-03T21:56:08.933Z,20.60
2022-09-03T21:59:04.723Z,20.60
2022-09-03T22:02:06.479Z,20.90
2022-09-03T22:04:33.337Z,20.90
2022-09-03T22:07:12.906Z,21.00
2022-09-03T22:10:12.125Z,21.00
2022-09-03T22:12:47.960Z,20.90
2022-09-03T22:15:15.036Z,20.90
2022-09-03T22:17:54.426Z,21.10
2022-09-03T22:20:23.058Z,21.60
2022-09-03T22:23:09.157Z,21.10
2022-09-03T22:26:08.854Z,20.80
2022-09-03T22:28:49.601Z,20.70
2022-09-03T22:31:41.361Z,20.70
2022-09-03T22:34:26.701Z,20.70
2022-09-03T22:37:06.837Z,20.70
2022-09-03T22:39:38.119Z,20.70
2022-09-03T22:42:39.429Z,21.10
2022-09-03T22:45:23.718Z,21.20
2022-09-03T22:48:08.964Z,21.40
2022-09-03T22:50:51.622Z,21.70
2022-09-03T22:53:42.395Z,21.20
2022-09-03T22:56:15.529Z,20.90
2022-09-03T22:59:13.049Z,21.10
2022-09-03T23:01:47.870Z,21.00
2022-09-03T23:04:25.143Z,21.40
2022-09-03T23:07:11.374Z,21.60
2022-09-03T23:09:41.016Z,21.20
2022-09-03T23:12:14.739Z,21.30
2022-09-03T23:14:54.056Z,21.00
2022-09-03T23:22:40.440Z,20.80
2022-09-03T23:25:23.488Z,21.00
2022-09-03T23:27:55.744Z,20.80
2022-09-03T23:30:22.558Z,21.00
2022-09-03T23:32:55.099Z,20.80
2022-09-03T23:35:25.874Z,20.70
2022-09-03T23:38:25.401Z,20.70
2022-09-03T23:40:59.635Z,20.80
2022-09-03T23:43:44.763Z,20.60
2022-09-03T23:46:34.285Z,20.80
2022-09-03T23:49:32.176Z,20.60
2022-09-03T23:52:19.030Z,20.60
2022-09-03T23:55:14.846Z,20.70
2022-09-03T23:57:49.312Z,20.70
